Nichiryu Maru — JG5632 — position and weather

sailwx.info

Track history (hours):
 
Tides and Currents Weather Stations Pressure Air Temp Water Temp Dewpoint Dewpoint Depression Visibility Wind Speed Wind Dir Waves Ship Positions

Nichiryu Maru

Last reported at 2016-Jul-25 11:33 UTC. Time now 2016-Jul-26 10:14 UTC.
Position N 34°56' E 139°25'.

Length 158 m; draft 6.5 m.

Type: Cargo ship. MMSI: 43100939.

Date/timePositionNaut miles runAvg speedWind from/ knotsBaromVisibWave heightAir tempDewpointWater temp
2016-Jul-25 11:33N 34°56' E 139°25'1817.8
2016-Jul-25 10:33N 35°06' E 139°43'1312.5
2016-Jul-25 09:33N 35°19' E 139°41'2 2.0
2016-Jul-25 08:33N 35°19' E 139°39'0 0.0
2016-Jul-25 07:30N 35°19' E 139°39'0 0.0
2016-Jul-25 06:33N 35°19' E 139°39'0 0.0
2016-Jul-25 05:21N 35°19' E 139°39'0 0.0
2016-Jul-25 04:33N 35°19' E 139°39'0 0.0
2016-Jul-25 03:33N 35°19' E 139°39'0 0.0
2016-Jul-25 02:33N 35°19' E 139°39'0 0.0
2016-Jul-25 01:33N 35°19' E 139°39'0 0.0
2016-Jul-25 00:21N 35°19' E 139°39'0 0.0
2016-Jul-24 23:30N 35°19' E 139°39'2 2.1
2016-Jul-24 22:33N 35°19' E 139°41'0 0.0
2016-Jul-24 21:33N 35°19' E 139°41'0 0.1
2016-Jul-24 20:33N 35°19' E 139°42'0 0.0
2016-Jul-24 19:33N 35°19' E 139°42'0 0.0
2016-Jul-24 18:27N 35°19' E 139°42'0 0.0
2016-Jul-24 17:33N 35°19' E 139°42'0 0.0
2016-Jul-24 16:33N 35°19' E 139°42'0 0.0
2016-Jul-24 15:33N 35°19' E 139°42'0 0.0
2016-Jul-24 14:30N 35°19' E 139°42'0 0.0
2016-Jul-24 13:33N 35°19' E 139°42'0 0.0
2016-Jul-24 12:33N 35°19' E 139°42'0 0.1
2016-Jul-24 11:33N 35°19' E 139°42'7 6.7
2016-Jul-24 10:33N 35°14' E 139°47'  
2016-Jul-21 15:25N 34°21' E 138°20'7018.0
2016-Jul-21 11:33N 34°60' E 139°31'1717.4
2016-Jul-21 10:33N 35°12' E 139°46'9 9.0
2016-Jul-21 09:33N 35°19' E 139°39'0 0.0
2016-Jul-21 08:33N 35°19' E 139°39'0 0.0
2016-Jul-21 07:33N 35°19' E 139°39'0 0.0
2016-Jul-21 06:30N 35°19' E 139°39'0 0.0
2016-Jul-21 05:30N 35°19' E 139°39'0 0.0
2016-Jul-21 04:33N 35°19' E 139°39'0 0.1
2016-Jul-21 03:34N 35°19' E 139°39'9 9.4
2016-Jul-21 02:33N 35°12' E 139°47'1917.1
2016-Jul-21 01:26N 34°58' E 139°30'7217.8
2016-Jul-20 21:25N 34°18' E 138°18'  
2016-Jul-18 11:21N 34°56' E 139°26'1417.6
2016-Jul-18 10:34N 35°04' E 139°40'1413.7
2016-Jul-18 09:34N 35°18' E 139°44'5 4.3
2016-Jul-18 08:31N 35°19' E 139°39'0 0.0
2016-Jul-18 07:28N 35°19' E 139°39'0 0.0
2016-Jul-18 06:22N 35°19' E 139°39'0 0.0
2016-Jul-18 05:28N 35°19' E 139°39'0 0.0
2016-Jul-18 04:31N 35°19' E 139°39'0 0.0
2016-Jul-18 03:28N 35°19' E 139°39'0 0.0
2016-Jul-18 02:22N 35°19' E 139°39'0 0.0
2016-Jul-18 01:28N 35°19' E 139°39'0 0.0
2016-Jul-18 00:31N 35°19' E 139°39'0 0.0
2016-Jul-17 23:28N 35°19' E 139°39'2 2.0
2016-Jul-17 22:30N 35°19' E 139°41'0 0.1
2016-Jul-17 21:33N 35°19' E 139°41'0 0.0
2016-Jul-17 20:33N 35°19' E 139°41'0 0.0
2016-Jul-17 19:33N 35°19' E 139°41'0 0.0
2016-Jul-17 18:27N 35°20' E 139°41'0 0.0
2016-Jul-17 17:33N 35°19' E 139°41'0 0.0
2016-Jul-17 16:33N 35°20' E 139°41'0 0.0
2016-Jul-17 15:33N 35°20' E 139°41'0 0.0
2016-Jul-17 14:33N 35°20' E 139°41'0 0.0
2016-Jul-17 13:33N 35°20' E 139°41'0 0.0
2016-Jul-17 12:24N 35°20' E 139°41'0 0.0
2016-Jul-17 11:33N 35°20' E 139°41'0 0.0
2016-Jul-17 10:33N 35°20' E 139°41'0 0.0
2016-Jul-17 09:30N 35°20' E 139°41'0 0.1
2016-Jul-17 08:33N 35°20' E 139°41'0 0.0
2016-Jul-17 07:30N 35°20' E 139°41'7 7.5
2016-Jul-17 06:33N 35°14' E 139°47'  
Track history (hours):
 
Tides and Currents Weather Stations Pressure Air Temp Water Temp Dewpoint Dewpoint Depression Visibility Wind Speed Wind Dir Waves Ship Positions

Nichiryu Maru

Last reported at 2016-Jul-25 11:33 UTC. Time now 2016-Jul-26 10:14 UTC.
Position N 34°56' E 139°25'.

Length 158 m; draft 6.5 m.

Type: Cargo ship. MMSI: 43100939.

Date/timePositionNaut miles runAvg speedWind from/ knotsBaromVisibWave heightAir tempDewpointWater temp
2016-Jul-25 11:33N 34°56' E 139°25'1817.8
2016-Jul-25 10:33N 35°06' E 139°43'1312.5
2016-Jul-25 09:33N 35°19' E 139°41'2 2.0
2016-Jul-25 08:33N 35°19' E 139°39'0 0.0
2016-Jul-25 07:30N 35°19' E 139°39'0 0.0
2016-Jul-25 06:33N 35°19' E 139°39'0 0.0
2016-Jul-25 05:21N 35°19' E 139°39'0 0.0
2016-Jul-25 04:33N 35°19' E 139°39'0 0.0
2016-Jul-25 03:33N 35°19' E 139°39'0 0.0
2016-Jul-25 02:33N 35°19' E 139°39'0 0.0
2016-Jul-25 01:33N 35°19' E 139°39'0 0.0
2016-Jul-25 00:21N 35°19' E 139°39'0 0.0
2016-Jul-24 23:30N 35°19' E 139°39'2 2.1
2016-Jul-24 22:33N 35°19' E 139°41'0 0.0
2016-Jul-24 21:33N 35°19' E 139°41'0 0.1
2016-Jul-24 20:33N 35°19' E 139°42'0 0.0
2016-Jul-24 19:33N 35°19' E 139°42'0 0.0
2016-Jul-24 18:27N 35°19' E 139°42'0 0.0
2016-Jul-24 17:33N 35°19' E 139°42'0 0.0
2016-Jul-24 16:33N 35°19' E 139°42'0 0.0
2016-Jul-24 15:33N 35°19' E 139°42'0 0.0
2016-Jul-24 14:30N 35°19' E 139°42'0 0.0
2016-Jul-24 13:33N 35°19' E 139°42'0 0.0
2016-Jul-24 12:33N 35°19' E 139°42'0 0.1
2016-Jul-24 11:33N 35°19' E 139°42'7 6.7
2016-Jul-24 10:33N 35°14' E 139°47'  
2016-Jul-21 15:25N 34°21' E 138°20'7018.0
2016-Jul-21 11:33N 34°60' E 139°31'1717.4
2016-Jul-21 10:33N 35°12' E 139°46'9 9.0
2016-Jul-21 09:33N 35°19' E 139°39'0 0.0
2016-Jul-21 08:33N 35°19' E 139°39'0 0.0
2016-Jul-21 07:33N 35°19' E 139°39'0 0.0
2016-Jul-21 06:30N 35°19' E 139°39'0 0.0
2016-Jul-21 05:30N 35°19' E 139°39'0 0.0
2016-Jul-21 04:33N 35°19' E 139°39'0 0.1
2016-Jul-21 03:34N 35°19' E 139°39'9 9.4
2016-Jul-21 02:33N 35°12' E 139°47'1917.1
2016-Jul-21 01:26N 34°58' E 139°30'7217.8
2016-Jul-20 21:25N 34°18' E 138°18'  
2016-Jul-18 11:21N 34°56' E 139°26'1417.6
2016-Jul-18 10:34N 35°04' E 139°40'1413.7
2016-Jul-18 09:34N 35°18' E 139°44'5 4.3
2016-Jul-18 08:31N 35°19' E 139°39'0 0.0
2016-Jul-18 07:28N 35°19' E 139°39'0 0.0
2016-Jul-18 06:22N 35°19' E 139°39'0 0.0
2016-Jul-18 05:28N 35°19' E 139°39'0 0.0
2016-Jul-18 04:31N 35°19' E 139°39'0 0.0
2016-Jul-18 03:28N 35°19' E 139°39'0 0.0
2016-Jul-18 02:22N 35°19' E 139°39'0 0.0
2016-Jul-18 01:28N 35°19' E 139°39'0 0.0
2016-Jul-18 00:31N 35°19' E 139°39'0 0.0
2016-Jul-17 23:28N 35°19' E 139°39'2 2.0
2016-Jul-17 22:30N 35°19' E 139°41'0 0.1
2016-Jul-17 21:33N 35°19' E 139°41'0 0.0
2016-Jul-17 20:33N 35°19' E 139°41'0 0.0
2016-Jul-17 19:33N 35°19' E 139°41'0 0.0
2016-Jul-17 18:27N 35°20' E 139°41'0 0.0
2016-Jul-17 17:33N 35°19' E 139°41'0 0.0
2016-Jul-17 16:33N 35°20' E 139°41'0 0.0
2016-Jul-17 15:33N 35°20' E 139°41'0 0.0
2016-Jul-17 14:33N 35°20' E 139°41'0 0.0
2016-Jul-17 13:33N 35°20' E 139°41'0 0.0
2016-Jul-17 12:24N 35°20' E 139°41'0 0.0
2016-Jul-17 11:33N 35°20' E 139°41'0 0.0
2016-Jul-17 10:33N 35°20' E 139°41'0 0.0
2016-Jul-17 09:30N 35°20' E 139°41'0 0.1
2016-Jul-17 08:33N 35°20' E 139°41'0 0.0
2016-Jul-17 07:30N 35°20' E 139°41'7 7.5
2016-Jul-17 06:33N 35°14' E 139°47'  

Dump ship's entire track history